KMRC/MRC METAR and TAF weather

Enter ICAO airport designator
Station Type Date Time Source
KMRC METAR 2021/04/14 19:35 UTC NOAA

KMRC 141935Z AUTO 36006KT 7SM BKN034 OVC060 14/08 A3005 RMK A01


Station Type Date Time Source
KMRC Decoded METAR 2021/04/14 19:35 UTC NOAA

Columbia / Maury County, TN, United States (KMRC) 35-33N 087-11W
Apr 14, 2021 - 03:35 PM EDT / 2021.04.14 1935 UTC
Wind: from the N (360 degrees) at 7 MPH (6 KT):0
Visibility: 7 mile(s):0
Sky conditions: overcast
Temperature: 57 F (14 C)
Dew Point: 46 F (8 C)
Relative Humidity: 67%
Pressure (altimeter): 30.05 in. Hg (1017 hPa)
ob: KMRC 141935Z AUTO 36006KT 7SM BKN034 OVC060 14/08 A3005 RMK A01
cycle: 19

Station Type Date Time Source
KMRC TAF 2009/08/31 19:45 UTC NOAA

METAR KMRC 311945Z AUTO 06008KT 10SM CLR 26/12 A3010
RMK AO1 T02550116 $

Example: see airport list